LJLJLDZA

Guest
Details From LJLJ - LJUBLJANA
To LDZA - Zagreb
Flight Number -
Tags generated
Created
Modified
Stats Distance 73 nm / 136 km
Max Altitude 5,600 ft / 1,707 m
Waypoints 3
Social Downloads 16
Likes 0
Share

Download

Looking for another format? Having issues loading an existing format? Contact us
Advertisement - Login to hide

Notes

Basic altitude profile: - Ascent Rate: 2500ft/min - Ascent Speed: 250kts - Cruise Altitude: 35000ft - Cruise Speed: 420kts - Descent Rate: 1500ft/min - Descent Speed: 250kts Options: - Use NATs: yes - Use PACOTS: yes - Use low airways: yes - Use high airways: yes

Route

LJLJ DOL LDZA

ID Type Via Altitude (ft/m) Position (lat/lon) Dist (leg/tot) Name
O LJLJ APT - 0 / 0 46.22368 / 14.45761 - / 0 nm LJUBLJANA
DOL VOR - 5,600 / 1,707 46.08414 / 14.77857 15 / 15 nm DOLSKO VOR-DME
O LDZA APT - 0 / 0 45.74189 / 16.06720 57 / 73 nm Zagreb

Altitude Profile

Advertisement - Login to hide

LJLJ

Details ICAO LJLJ (LJU)
Name Ljubljana Joze Pucnik Int'l
Region Slovenia
Timezone Europe/Ljubljana (UTC+2.0)
Stats Elevation 1,271 ft / 387 m (AMSL)
Location 46.223700° 14.457600°
Runways 1
Magnetic Variation 4.050° E

METAR

LJLJ 082030Z 29003KT CAVOK 07/06 Q1021 NOSIG

Decode

TAF

TAF LJLJ 081700Z 0818/0918 12004KT 9999 FEW040 PROB30 TEMPO 0912/0917 24010KT

Decode

Departure Runways

ID Width Length Bearing (true/mag) Surface Threshold Overrun Markings Lighting
12 148 ft / 45 m 10,838 ft / 3,303 m 126.47° / 122.42° ASPHALT 0 ft / 0 m 0 ft / 0 m APP CENTERLINE EDGE THRESHOLD SALS REIL-OMNI
30 148 ft / 45 m 10,838 ft / 3,303 m 306.50° / 302.45° ASPHALT 0 ft / 0 m 0 ft / 0 m PREC-APP CENTERLINE EDGE THRESHOLD CALVERT-ILS TDZ REIL-OMNI

LDZA

Details ICAO LDZA (ZAG)
Name Zagreb
Region Croatia
Timezone Europe/Zagreb (UTC+2.0)
Stats Elevation 353 ft / 108 m (AMSL)
Location 45.741800° 16.067200°
Runways 1
Magnetic Variation 4.341° E

METAR

LDZA 082030Z 00000KT CAVOK 08/05 Q1021 NOSIG

Decode

TAF

TAF LDZA 081725Z 0818/0918 12005KT CAVOK TX24/0913Z TN04/0904Z

Decode

Destination Runways

ID Width Length Bearing (true/mag) Surface Threshold Overrun Markings Lighting
04 148 ft / 45 m 10,666 ft / 3,251 m 46.70° / 42.36° CONCRETE 0 ft / 0 m 0 ft / 0 m PREC-APP CENTERLINE EDGE THRESHOLD ALSF-II TDZ REIL-OMNI
22 148 ft / 45 m 10,666 ft / 3,251 m 226.72° / 222.38° CONCRETE 0 ft / 0 m 0 ft / 0 m PREC-APP CENTERLINE EDGE THRESHOLD ALSF-I REIL-OMNI

Approach Navaids

Runway Type Ident Frequency Range Bearing (true/mag) Slope Elevation
04 LOC-ILS IZA 109.50 MHz 18 nm / 33 km 46.72° / 42.38 ° - 353 ft / 108 m (AMSL)
04 GS IZA 109.50 MHz 10 nm / 19 km 46.72° / 42.38 ° 3.00° 353 ft / 108 m (AMSL)
22 GS IZG 109.10 MHz 10 nm / 19 km 226.72° / 222.38 ° 3.00° 353 ft / 108 m (AMSL)
22 LOC-ILS IZG 109.10 MHz 18 nm / 33 km 226.72° / 222.38 ° - 353 ft / 108 m (AMSL)

Popular Alternatives